^^
TXWeather Station Historical Data
Daily Summary for January 16, 2022 Units:  English    Metric   Both
Daily Weekly Monthly Yearly Custom
  High: Low: Average:
Temperature: 57.0 °F 33.0 °F 42.7 °F
Dew Point: 38.0 °F 23.0 °F 30.7 °F
Humidity: 80% 48% 63%
Wind Speed: 21mph 0mph 7.6mph
Wind Gust: 21mph - -
Wind- - WNW
Pressure: 30.2 in 30.1 in -
Precipitation: 0.000 in    
Historical Graphs
 
 
Tabular Data for January 16, 2022
Time Temperature Dew Point Pressure Wind Wind Speed Wind Gust Humidity Rainfall Rate (Hourly) solar
00:04 36.0 °F 23.0 °F 30.2 in NW 18 mph 18 mph 58% 0.000 in 0.00 W/m2
00:09 36.0 °F 23.0 °F 30.2 in NW 15 mph 15 mph 58% 0.000 in 0.00 W/m2
00:14 36.0 °F 23.0 °F 30.2 in NW 16 mph 16 mph 59% 0.000 in 0.00 W/m2
00:19 36.0 °F 23.0 °F 30.2 in NW 13 mph 14 mph 59% 0.000 in 0.00 W/m2
00:24 36.0 °F 23.0 °F 30.2 in NW 11 mph 14 mph 59% 0.000 in 0.00 W/m2
00:29 36.0 °F 23.0 °F 30.2 in NW 15 mph 15 mph 59% 0.000 in 0.00 W/m2
00:34 36.0 °F 23.0 °F 30.2 in NW 12 mph 13 mph 60% 0.000 in 0.00 W/m2
00:39 36.0 °F 23.0 °F 30.2 in NW 10 mph 13 mph 60% 0.000 in 0.00 W/m2
00:44 36.0 °F 23.0 °F 30.2 in NW 21 mph 21 mph 60% 0.000 in 0.00 W/m2
00:49 36.0 °F 23.0 °F 30.2 in NW 14 mph 21 mph 60% 0.000 in 0.00 W/m2
00:54 36.0 °F 23.0 °F 30.2 in NW 17 mph 17 mph 60% 0.000 in 0.00 W/m2
00:59 36.0 °F 23.0 °F 30.2 in NW 14 mph 17 mph 60% 0.000 in 0.00 W/m2
01:04 36.0 °F 23.0 °F 30.2 in NW 14 mph 19 mph 60% 0.000 in 0.00 W/m2
01:09 36.0 °F 23.0 °F 30.2 in NW 16 mph 20 mph 60% 0.000 in 0.00 W/m2
01:14 36.0 °F 23.0 °F 30.1 in NW 15 mph 20 mph 60% 0.000 in 0.00 W/m2
01:19 35.0 °F 23.0 °F 30.2 in NW 17 mph 18 mph 61% 0.000 in 0.00 W/m2
01:24 35.0 °F 23.0 °F 30.2 in NW 14 mph 18 mph 61% 0.000 in 0.00 W/m2
01:29 35.0 °F 23.0 °F 30.2 in NW 13 mph 16 mph 61% 0.000 in 0.00 W/m2
01:34 35.0 °F 23.0 °F 30.2 in NW 12 mph 14 mph 61% 0.000 in 0.00 W/m2
01:39 35.0 °F 24.0 °F 30.2 in NW 14 mph 14 mph 62% 0.000 in 0.00 W/m2
01:44 35.0 °F 24.0 °F 30.2 in NW 14 mph 14 mph 62% 0.000 in 0.00 W/m2
01:49 35.0 °F 24.0 °F 30.2 in NW 14 mph 17 mph 62% 0.000 in 0.00 W/m2
01:54 35.0 °F 24.0 °F 30.2 in NW 14 mph 15 mph 62% 0.000 in 0.00 W/m2
01:59 35.0 °F 24.0 °F 30.2 in NW 13 mph 14 mph 62% 0.000 in 0.00 W/m2
02:04 35.0 °F 24.0 °F 30.2 in NW 18 mph 19 mph 63% 0.000 in 0.00 W/m2
02:09 35.0 °F 24.0 °F 30.2 in NW 11 mph 12 mph 63% 0.000 in 0.00 W/m2
02:14 35.0 °F 24.0 °F 30.2 in NW 15 mph 15 mph 63% 0.000 in 0.00 W/m2
02:19 35.0 °F 24.0 °F 30.2 in NW 13 mph 17 mph 63% 0.000 in 0.00 W/m2
02:24 35.0 °F 24.0 °F 30.2 in NW 13 mph 14 mph 63% 0.000 in 0.00 W/m2
02:29 35.0 °F 24.0 °F 30.2 in NW 12 mph 12 mph 63% 0.000 in 0.00 W/m2
02:34 35.0 °F 24.0 °F 30.2 in NW 13 mph 16 mph 64% 0.000 in 0.00 W/m2
02:39 35.0 °F 24.0 °F 30.2 in NW 11 mph 16 mph 64% 0.000 in 0.00 W/m2
02:44 35.0 °F 24.0 °F 30.2 in NW 12 mph 12 mph 64% 0.000 in 0.00 W/m2
02:49 35.0 °F 24.0 °F 30.2 in NW 11 mph 12 mph 64% 0.000 in 0.00 W/m2
02:54 35.0 °F 24.0 °F 30.2 in NW 13 mph 13 mph 64% 0.000 in 0.00 W/m2
02:59 35.0 °F 24.0 °F 30.2 in NW 10 mph 13 mph 65% 0.000 in 0.00 W/m2
03:04 35.0 °F 24.0 °F 30.2 in NW 14 mph 14 mph 65% 0.000 in 0.00 W/m2
03:09 35.0 °F 24.0 °F 30.2 in NW 9 mph 10 mph 65% 0.000 in 0.00 W/m2
03:14 35.0 °F 24.0 °F 30.2 in WNW 11 mph 11 mph 65% 0.000 in 0.00 W/m2
03:19 35.0 °F 24.0 °F 30.2 in NW 15 mph 15 mph 65% 0.000 in 0.00 W/m2
03:24 34.0 °F 24.0 °F 30.2 in NW 11 mph 12 mph 66% 0.000 in 0.00 W/m2
03:29 34.0 °F 24.0 °F 30.2 in NW 14 mph 14 mph 66% 0.000 in 0.00 W/m2
03:34 34.0 °F 24.0 °F 30.2 in NW 11 mph 11 mph 66% 0.000 in 0.00 W/m2
03:39 34.0 °F 24.0 °F 30.2 in NW 13 mph 14 mph 66% 0.000 in 0.00 W/m2
03:44 34.0 °F 24.0 °F 30.2 in NW 13 mph 15 mph 67% 0.000 in 0.00 W/m2
03:49 34.0 °F 24.0 °F 30.2 in NW 13 mph 13 mph 67% 0.000 in 0.00 W/m2
03:54 34.0 °F 24.0 °F 30.2 in NW 14 mph 14 mph 67% 0.000 in 0.00 W/m2
03:59 34.0 °F 24.0 °F 30.2 in NW 14 mph 15 mph 67% 0.000 in 0.00 W/m2
04:04 34.0 °F 25.0 °F 30.2 in NW 16 mph 16 mph 68% 0.000 in 0.00 W/m2
04:09 34.0 °F 25.0 °F 30.2 in NW 12 mph 16 mph 68% 0.000 in 0.00 W/m2
04:14 34.0 °F 25.0 °F 30.2 in NW 12 mph 13 mph 68% 0.000 in 0.00 W/m2
04:19 34.0 °F 25.0 °F 30.2 in NW 14 mph 14 mph 68% 0.000 in 0.00 W/m2
04:24 34.0 °F 25.0 °F 30.2 in NW 11 mph 14 mph 68% 0.000 in 0.00 W/m2
04:29 34.0 °F 25.0 °F 30.2 in NW 14 mph 14 mph 69% 0.000 in 0.00 W/m2
04:34 34.0 °F 25.0 °F 30.2 in NW 7 mph 11 mph 69% 0.000 in 0.00 W/m2
04:39 34.0 °F 25.0 °F 30.2 in NW 10 mph 13 mph 69% 0.000 in 0.00 W/m2
04:44 34.0 °F 25.0 °F 30.2 in NW 10 mph 11 mph 69% 0.000 in 0.00 W/m2
04:49 34.0 °F 25.0 °F 30.2 in NW 9 mph 12 mph 69% 0.000 in 0.00 W/m2
04:54 34.0 °F 25.0 °F 30.2 in NW 9 mph 12 mph 70% 0.000 in 0.00 W/m2
04:59 34.0 °F 25.0 °F 30.2 in NW 11 mph 11 mph 70% 0.000 in 0.00 W/m2
05:04 34.0 °F 25.0 °F 30.2 in NW 9 mph 11 mph 70% 0.000 in 0.00 W/m2
05:09 34.0 °F 25.0 °F 30.2 in WNW 10 mph 13 mph 70% 0.000 in 0.00 W/m2
05:14 34.0 °F 25.0 °F 30.2 in NW 14 mph 14 mph 70% 0.000 in 0.00 W/m2
05:19 34.0 °F 25.0 °F 30.2 in NW 7 mph 9 mph 70% 0.000 in 0.00 W/m2
05:24 34.0 °F 25.0 °F 30.2 in NW 10 mph 10 mph 70% 0.000 in 0.00 W/m2
05:29 34.0 °F 25.0 °F 30.2 in WNW 12 mph 12 mph 70% 0.000 in 0.00 W/m2
05:34 34.0 °F 25.0 °F 30.2 in NW 7 mph 12 mph 70% 0.000 in 0.00 W/m2
05:39 34.0 °F 25.0 °F 30.2 in NW 9 mph 10 mph 70% 0.000 in 0.00 W/m2
05:44 34.0 °F 25.0 °F 30.2 in NW 11 mph 11 mph 70% 0.000 in 0.00 W/m2
05:49 34.0 °F 25.0 °F 30.2 in NW 11 mph 11 mph 70% 0.000 in 0.00 W/m2
05:54 33.0 °F 25.0 °F 30.2 in NW 6 mph 9 mph 71% 0.000 in 0.00 W/m2
05:59 33.0 °F 25.0 °F 30.2 in NW 10 mph 10 mph 71% 0.000 in 0.00 W/m2
06:04 33.0 °F 25.0 °F 30.2 in WNW 7 mph 8 mph 71% 0.000 in 0.00 W/m2
06:09 33.0 °F 25.0 °F 30.2 in NW 9 mph 9 mph 71% 0.000 in 0.00 W/m2
06:14 33.0 °F 25.0 °F 30.2 in NW 10 mph 10 mph 71% 0.000 in 0.00 W/m2
06:19 34.0 °F 25.0 °F 30.2 in WNW 10 mph 11 mph 71% 0.000 in 0.00 W/m2
06:24 34.0 °F 25.0 °F 30.2 in NW 5 mph 9 mph 71% 0.000 in 0.00 W/m2
06:29 34.0 °F 25.0 °F 30.2 in NW 11 mph 12 mph 71% 0.000 in 0.00 W/m2
06:34 34.0 °F 25.0 °F 30.2 in WNW 9 mph 12 mph 71% 0.000 in 0.00 W/m2
06:39 34.0 °F 25.0 °F 30.2 in NW 11 mph 11 mph 71% 0.000 in 0.00 W/m2
06:44 34.0 °F 25.0 °F 30.2 in NW 10 mph 11 mph 71% 0.000 in 0.00 W/m2
06:49 34.0 °F 25.0 °F 30.2 in NW 9 mph 9 mph 71% 0.000 in 0.00 W/m2
06:54 34.0 °F 25.0 °F 30.2 in WNW 6 mph 9 mph 71% 0.000 in 0.00 W/m2
06:59 34.0 °F 25.0 °F 30.2 in NW 6 mph 6 mph 71% 0.000 in 0.00 W/m2
07:04 33.0 °F 25.0 °F 30.2 in WNW 6 mph 7 mph 71% 0.000 in 0.00 W/m2
07:09 33.0 °F 25.0 °F 30.2 in NW 10 mph 10 mph 71% 0.000 in 0.00 W/m2
07:14 33.0 °F 25.0 °F 30.2 in NW 5 mph 8 mph 71% 0.000 in 0.00 W/m2
07:19 33.0 °F 25.0 °F 30.2 in NW 6 mph 6 mph 71% 0.000 in 0.00 W/m2
07:24 33.0 °F 25.0 °F 30.2 in NW 6 mph 6 mph 71% 0.000 in 5.00 W/m2
07:29 33.0 °F 25.0 °F 30.2 in WNW 7 mph 7 mph 71% 0.000 in 9.00 W/m2
07:34 33.0 °F 25.0 °F 30.2 in WNW 5 mph 7 mph 71% 0.000 in 11.00 W/m2
07:39 33.0 °F 25.0 °F 30.2 in NW 7 mph 7 mph 71% 0.000 in 14.00 W/m2
07:44 33.0 °F 25.0 °F 30.2 in NW 6 mph 7 mph 71% 0.000 in 19.00 W/m2
07:49 33.0 °F 25.0 °F 30.2 in NW 5 mph 7 mph 71% 0.000 in 23.00 W/m2
07:54 33.0 °F 25.0 °F 30.2 in NW 3 mph 5 mph 71% 0.000 in 21.00 W/m2
07:59 33.0 °F 25.0 °F 30.2 in NW 3 mph 4 mph 71% 0.000 in 40.00 W/m2
08:04 34.0 °F 25.0 °F 30.2 in WNW 5 mph 7 mph 71% 0.000 in 63.00 W/m2
08:09 34.0 °F 25.0 °F 30.2 in WNW 7 mph 9 mph 71% 0.000 in 76.00 W/m2
08:14 34.0 °F 26.0 °F 30.2 in WNW 7 mph 7 mph 72% 0.000 in 90.00 W/m2
08:19 34.0 °F 26.0 °F 30.2 in NW 7 mph 8 mph 71% 0.000 in 53.00 W/m2
08:24 35.0 °F 26.0 °F 30.2 in WNW 8 mph 9 mph 71% 0.000 in 102.00 W/m2
08:29 35.0 °F 27.0 °F 30.2 in WNW 7 mph 8 mph 71% 0.000 in 102.00 W/m2
08:34 35.0 °F 27.0 °F 30.2 in WNW 13 mph 13 mph 71% 0.000 in 88.00 W/m2
08:39 36.0 °F 27.0 °F 30.2 in NW 11 mph 13 mph 70% 0.000 in 109.00 W/m2
08:44 36.0 °F 27.0 °F 30.2 in WNW 13 mph 13 mph 70% 0.000 in 229.00 W/m2
08:49 36.0 °F 27.0 °F 30.2 in NW 11 mph 13 mph 69% 0.000 in 220.00 W/m2
08:54 36.0 °F 27.0 °F 30.2 in NW 10 mph 13 mph 69% 0.000 in 200.00 W/m2
08:59 37.0 °F 28.0 °F 30.2 in NW 13 mph 13 mph 69% 0.000 in 262.00 W/m2
09:04 37.0 °F 28.0 °F 30.2 in NW 12 mph 14 mph 69% 0.000 in 295.00 W/m2
09:09 37.0 °F 28.0 °F 30.2 in NNW 8 mph 9 mph 68% 0.000 in 302.00 W/m2
09:14 38.0 °F 28.0 °F 30.2 in WNW 11 mph 12 mph 68% 0.000 in 127.00 W/m2
09:19 38.0 °F 28.0 °F 30.2 in NW 14 mph 14 mph 68% 0.000 in 262.00 W/m2
09:24 38.0 °F 28.0 °F 30.2 in NW 12 mph 12 mph 67% 0.000 in 364.00 W/m2
09:29 39.0 °F 29.0 °F 30.2 in NNW 12 mph 12 mph 67% 0.000 in 364.00 W/m2
09:34 39.0 °F 29.0 °F 30.2 in NW 10 mph 10 mph 67% 0.000 in 274.00 W/m2
09:39 39.0 °F 29.0 °F 30.2 in NW 12 mph 14 mph 67% 0.000 in 192.00 W/m2
09:44 40.0 °F 30.0 °F 30.2 in NW 10 mph 14 mph 66% 0.000 in 318.00 W/m2
09:49 41.0 °F 30.0 °F 30.2 in NW 11 mph 11 mph 66% 0.000 in 318.00 W/m2
09:54 41.0 °F 31.0 °F 30.2 in NW 11 mph 12 mph 65% 0.000 in 432.00 W/m2
09:59 42.0 °F 30.0 °F 30.2 in NW 9 mph 12 mph 64% 0.000 in 385.00 W/m2
10:04 42.0 °F 31.0 °F 30.2 in WNW 8 mph 12 mph 64% 0.000 in 482.00 W/m2
10:09 43.0 °F 31.0 °F 30.2 in NW 10 mph 10 mph 64% 0.000 in 494.00 W/m2
10:14 43.0 °F 32.0 °F 30.2 in NW 11 mph 11 mph 63% 0.000 in 494.00 W/m2
10:19 43.0 °F 32.0 °F 30.2 in WNW 10 mph 10 mph 63% 0.000 in 199.00 W/m2
10:24 44.0 °F 32.0 °F 30.2 in WNW 11 mph 11 mph 63% 0.000 in 434.00 W/m2
10:29 44.0 °F 32.0 °F 30.2 in West 13 mph 13 mph 62% 0.000 in 534.00 W/m2
10:34 44.0 °F 32.0 °F 30.2 in WNW 10 mph 13 mph 62% 0.000 in 554.00 W/m2
10:39 45.0 °F 33.0 °F 30.2 in NW 9 mph 10 mph 62% 0.000 in 515.00 W/m2
10:44 45.0 °F 33.0 °F 30.2 in WNW 13 mph 13 mph 61% 0.000 in 517.00 W/m2
10:49 46.0 °F 33.0 °F 30.2 in NW 10 mph 10 mph 61% 0.000 in 584.00 W/m2
10:54 46.0 °F 33.0 °F 30.2 in NW 11 mph 11 mph 61% 0.000 in 592.00 W/m2
10:59 47.0 °F 34.0 °F 30.2 in NW 9 mph 9 mph 60% 0.000 in 599.00 W/m2
11:04 47.0 °F 33.0 °F 30.2 in WNW 11 mph 11 mph 59% 0.000 in 613.00 W/m2
11:09 47.0 °F 33.0 °F 30.2 in WNW 10 mph 10 mph 59% 0.000 in 621.00 W/m2
11:14 48.0 °F 34.0 °F 30.2 in WNW 9 mph 11 mph 60% 0.000 in 628.00 W/m2
11:19 48.0 °F 34.0 °F 30.2 in NW 12 mph 15 mph 59% 0.000 in 635.00 W/m2
11:24 48.0 °F 34.0 °F 30.2 in NW 11 mph 15 mph 59% 0.000 in 640.00 W/m2
11:29 49.0 °F 35.0 °F 30.2 in NW 14 mph 14 mph 59% 0.000 in 643.00 W/m2
11:34 49.0 °F 35.0 °F 30.2 in WNW 8 mph 9 mph 58% 0.000 in 654.00 W/m2
11:39 50.0 °F 35.0 °F 30.2 in WNW 7 mph 8 mph 57% 0.000 in 659.00 W/m2
11:44 49.0 °F 35.0 °F 30.2 in WNW 7 mph 8 mph 57% 0.000 in 666.00 W/m2
11:49 50.0 °F 36.0 °F 30.2 in NW 8 mph 9 mph 58% 0.000 in 670.00 W/m2
11:54 50.0 °F 35.0 °F 30.2 in NW 14 mph 14 mph 56% 0.000 in 673.00 W/m2
11:59 51.0 °F 36.0 °F 30.2 in NW 11 mph 14 mph 56% 0.000 in 677.00 W/m2
12:04 51.0 °F 36.0 °F 30.2 in WNW 7 mph 9 mph 57% 0.000 in 679.00 W/m2
12:09 51.0 °F 35.0 °F 30.2 in WNW 9 mph 9 mph 55% 0.000 in 636.00 W/m2
12:14 51.0 °F 35.0 °F 30.2 in NW 9 mph 10 mph 55% 0.000 in 657.00 W/m2
12:19 51.0 °F 35.0 °F 30.2 in WNW 11 mph 12 mph 55% 0.000 in 686.00 W/m2
12:24 51.0 °F 36.0 °F 30.2 in West 11 mph 11 mph 55% 0.000 in 661.00 W/m2
12:29 51.0 °F 36.0 °F 30.2 in West 11 mph 12 mph 56% 0.000 in 689.00 W/m2
12:34 52.0 °F 37.0 °F 30.2 in NW 10 mph 11 mph 56% 0.000 in 689.00 W/m2
12:39 52.0 °F 36.0 °F 30.2 in West 10 mph 10 mph 54% 0.000 in 689.00 W/m2
12:44 52.0 °F 36.0 °F 30.2 in WNW 10 mph 11 mph 54% 0.000 in 675.00 W/m2
12:49 53.0 °F 36.0 °F 30.2 in WNW 5 mph 11 mph 54% 0.000 in 555.00 W/m2
12:54 53.0 °F 37.0 °F 30.1 in WNW 12 mph 12 mph 54% 0.000 in 629.00 W/m2
12:59 53.0 °F 36.0 °F 30.1 in West 9 mph 10 mph 52% 0.000 in 684.00 W/m2
13:04 53.0 °F 36.0 °F 30.1 in NW 11 mph 11 mph 52% 0.000 in 679.00 W/m2
13:09 53.0 °F 36.0 °F 30.1 in West 10 mph 11 mph 53% 0.000 in 679.00 W/m2
13:14 54.0 °F 37.0 °F 30.1 in WNW 7 mph 8 mph 53% 0.000 in 675.00 W/m2
13:19 54.0 °F 37.0 °F 30.1 in West 10 mph 11 mph 52% 0.000 in 671.00 W/m2
13:24 54.0 °F 36.0 °F 30.1 in West 10 mph 11 mph 52% 0.000 in 668.00 W/m2
13:29 54.0 °F 37.0 °F 30.1 in West 10 mph 10 mph 52% 0.000 in 666.00 W/m2
13:34 54.0 °F 37.0 °F 30.1 in WSW 8 mph 10 mph 52% 0.000 in 647.00 W/m2
13:39 55.0 °F 37.0 °F 30.1 in NW 10 mph 13 mph 52% 0.000 in 649.00 W/m2
13:44 55.0 °F 37.0 °F 30.1 in NNW 9 mph 9 mph 51% 0.000 in 647.00 W/m2
13:49 55.0 °F 37.0 °F 30.1 in West 10 mph 10 mph 51% 0.000 in 640.00 W/m2
13:54 55.0 °F 37.0 °F 30.1 in WNW 9 mph 11 mph 50% 0.000 in 635.00 W/m2
13:59 56.0 °F 37.0 °F 30.1 in WNW 10 mph 11 mph 50% 0.000 in 629.00 W/m2
14:04 55.0 °F 37.0 °F 30.1 in West 8 mph 9 mph 50% 0.000 in 621.00 W/m2
14:09 56.0 °F 37.0 °F 30.1 in WNW 10 mph 13 mph 50% 0.000 in 615.00 W/m2
14:14 56.0 °F 37.0 °F 30.1 in NW 9 mph 13 mph 50% 0.000 in 608.00 W/m2
14:19 56.0 °F 37.0 °F 30.1 in NW 10 mph 11 mph 50% 0.000 in 596.00 W/m2
14:24 56.0 °F 38.0 °F 30.1 in WNW 9 mph 9 mph 51% 0.000 in 584.00 W/m2
14:29 56.0 °F 37.0 °F 30.1 in WNW 9 mph 9 mph 50% 0.000 in 577.00 W/m2
14:34 56.0 °F 37.0 °F 30.1 in West 9 mph 11 mph 49% 0.000 in 566.00 W/m2
14:39 56.0 °F 38.0 °F 30.1 in WNW 9 mph 9 mph 50% 0.000 in 555.00 W/m2
14:44 56.0 °F 38.0 °F 30.1 in NW 9 mph 10 mph 50% 0.000 in 550.00 W/m2
14:49 57.0 °F 38.0 °F 30.1 in NW 10 mph 10 mph 49% 0.000 in 534.00 W/m2
14:54 56.0 °F 37.0 °F 30.1 in West 10 mph 10 mph 49% 0.000 in 515.00 W/m2
14:59 56.0 °F 37.0 °F 30.1 in WNW 12 mph 12 mph 49% 0.000 in 512.00 W/m2
15:04 56.0 °F 37.0 °F 30.1 in NW 10 mph 12 mph 49% 0.000 in 501.00 W/m2
15:09 56.0 °F 37.0 °F 30.1 in NW 9 mph 10 mph 49% 0.000 in 483.00 W/m2
15:14 57.0 °F 37.0 °F 30.1 in NW 10 mph 10 mph 48% 0.000 in 473.00 W/m2
15:19 57.0 °F 37.0 °F 30.1 in NW 10 mph 10 mph 48% 0.000 in 461.00 W/m2
15:24 57.0 °F 37.0 °F 30.1 in West 8 mph 8 mph 48% 0.000 in 445.00 W/m2
15:29 57.0 °F 37.0 °F 30.1 in NW 9 mph 10 mph 48% 0.000 in 431.00 W/m2
15:34 57.0 °F 38.0 °F 30.1 in NW 8 mph 8 mph 49% 0.000 in 420.00 W/m2
15:39 57.0 °F 37.0 °F 30.1 in WNW 10 mph 10 mph 48% 0.000 in 401.00 W/m2
15:44 57.0 °F 37.0 °F 30.1 in West 8 mph 10 mph 48% 0.000 in 388.00 W/m2
15:49 56.0 °F 37.0 °F 30.1 in WNW 5 mph 7 mph 49% 0.000 in 366.00 W/m2
15:54 56.0 °F 37.0 °F 30.1 in West 8 mph 10 mph 49% 0.000 in 359.00 W/m2
15:59 57.0 °F 38.0 °F 30.1 in West 9 mph 9 mph 49% 0.000 in 341.00 W/m2
16:04 57.0 °F 37.0 °F 30.1 in WSW 9 mph 9 mph 48% 0.000 in 325.00 W/m2
16:09 56.0 °F 37.0 °F 30.1 in WNW 8 mph 9 mph 49% 0.000 in 308.00 W/m2
16:14 56.0 °F 37.0 °F 30.1 in NW 10 mph 10 mph 48% 0.000 in 295.00 W/m2
16:19 56.0 °F 36.0 °F 30.1 in NW 11 mph 11 mph 48% 0.000 in 274.00 W/m2
16:24 56.0 °F 36.0 °F 30.1 in WSW 6 mph 8 mph 48% 0.000 in 163.00 W/m2
16:29 56.0 °F 37.0 °F 30.1 in West 7 mph 9 mph 48% 0.000 in 54.00 W/m2
16:34 56.0 °F 37.0 °F 30.1 in NW 7 mph 8 mph 48% 0.000 in 69.00 W/m2
16:39 56.0 °F 37.0 °F 30.1 in WNW 5 mph 7 mph 48% 0.000 in 54.00 W/m2
16:44 56.0 °F 37.0 °F 30.1 in West 8 mph 8 mph 48% 0.000 in 42.00 W/m2
16:49 56.0 °F 36.0 °F 30.1 in NW 8 mph 8 mph 48% 0.000 in 44.00 W/m2
16:54 56.0 °F 37.0 °F 30.1 in NW 5 mph 5 mph 49% 0.000 in 26.00 W/m2
16:59 56.0 °F 37.0 °F 30.1 in West 7 mph 8 mph 49% 0.000 in 25.00 W/m2
17:04 55.0 °F 37.0 °F 30.1 in West 4 mph 8 mph 50% 0.000 in 44.00 W/m2
17:09 55.0 °F 37.0 °F 30.1 in West 4 mph 6 mph 50% 0.000 in 44.00 W/m2
17:14 55.0 °F 37.0 °F 30.1 in West 3 mph 4 mph 50% 0.000 in 32.00 W/m2
17:19 55.0 °F 37.0 °F 30.1 in WNW 4 mph 4 mph 50% 0.000 in 26.00 W/m2
17:24 55.0 °F 37.0 °F 30.1 in West 4 mph 4 mph 50% 0.000 in 14.00 W/m2
17:29 55.0 °F 37.0 °F 30.1 in West 4 mph 4 mph 51% 0.000 in 12.00 W/m2
17:34 54.0 °F 37.0 °F 30.1 in NW 4 mph 6 mph 51% 0.000 in 9.00 W/m2
17:39 54.0 °F 37.0 °F 30.1 in WNW 3 mph 3 mph 52% 0.000 in 7.00 W/m2
17:44 54.0 °F 37.0 °F 30.1 in WSW 3 mph 4 mph 52% 0.000 in 5.00 W/m2
17:49 54.0 °F 36.0 °F 30.1 in WSW 3 mph 3 mph 52% 0.000 in 0.00 W/m2
17:54 53.0 °F 37.0 °F 30.1 in WSW 1 mph 2 mph 53% 0.000 in 0.00 W/m2
17:59 53.0 °F 36.0 °F 30.1 in WSW 1 mph 1 mph 53% 0.000 in 0.00 W/m2
18:04 53.0 °F 36.0 °F 30.1 in Calm   1 mph 53% 0.000 in 0.00 W/m2
18:09 52.0 °F 36.0 °F 30.1 in Calm     54% 0.000 in 0.00 W/m2
18:14 52.0 °F 36.0 °F 30.1 in Calm     55% 0.000 in 0.00 W/m2
18:19 51.0 °F 35.0 °F 30.1 in Calm     55% 0.000 in 0.00 W/m2
18:24 51.0 °F 35.0 °F 30.1 in Calm     56% 0.000 in 0.00 W/m2
18:29 50.0 °F 35.0 °F 30.1 in Calm     58% 0.000 in 0.00 W/m2
18:34 50.0 °F 35.0 °F 30.1 in Calm     59% 0.000 in 0.00 W/m2
18:39 49.0 °F 35.0 °F 30.1 in Calm     59% 0.000 in 0.00 W/m2
18:44 48.0 °F 35.0 °F 30.1 in WSW 1 mph 1 mph 60% 0.000 in 0.00 W/m2
18:49 48.0 °F 35.0 °F 30.1 in WSW 1 mph 1 mph 60% 0.000 in 0.00 W/m2
18:54 48.0 °F 35.0 °F 30.1 in Calm     61% 0.000 in 0.00 W/m2
18:59 47.0 °F 35.0 °F 30.1 in Calm     61% 0.000 in 0.00 W/m2
19:04 47.0 °F 35.0 °F 30.1 in Calm     62% 0.000 in 0.00 W/m2
19:09 47.0 °F 35.0 °F 30.1 in Calm     62% 0.000 in 0.00 W/m2
19:14 46.0 °F 34.0 °F 30.1 in Calm     63% 0.000 in 0.00 W/m2
19:19 46.0 °F 34.0 °F 30.1 in Calm     63% 0.000 in 0.00 W/m2
19:24 46.0 °F 34.0 °F 30.1 in Calm     64% 0.000 in 0.00 W/m2
19:29 45.0 °F 34.0 °F 30.1 in Calm     65% 0.000 in 0.00 W/m2
19:34 45.0 °F 34.0 °F 30.1 in Calm     65% 0.000 in 0.00 W/m2
19:39 45.0 °F 34.0 °F 30.1 in WSW 1 mph 1 mph 65% 0.000 in 0.00 W/m2
19:44 44.0 °F 33.0 °F 30.1 in Calm   1 mph 65% 0.000 in 0.00 W/m2
19:49 44.0 °F 33.0 °F 30.1 in Calm     66% 0.000 in 0.00 W/m2
19:59 44.0 °F 33.0 °F 30.1 in Calm   1 mph 67% 0.000 in 0.00 W/m2
20:04 44.0 °F 33.0 °F 30.1 in WSW 1 mph 1 mph 68% 0.000 in 0.00 W/m2
20:09 43.0 °F 33.0 °F 30.1 in Calm   1 mph 68% 0.000 in 0.00 W/m2
20:14 43.0 °F 33.0 °F 30.1 in Calm     68% 0.000 in 0.00 W/m2
20:19 43.0 °F 33.0 °F 30.1 in Calm     69% 0.000 in 0.00 W/m2
20:24 43.0 °F 33.0 °F 30.1 in Calm     69% 0.000 in 0.00 W/m2
20:29 42.0 °F 33.0 °F 30.1 in Calm     70% 0.000 in 0.00 W/m2
20:34 42.0 °F 33.0 °F 30.1 in Calm   1 mph 70% 0.000 in 0.00 W/m2
20:39 42.0 °F 33.0 °F 30.1 in Calm     71% 0.000 in 0.00 W/m2
20:44 42.0 °F 33.0 °F 30.1 in WSW 1 mph 1 mph 71% 0.000 in 0.00 W/m2
20:49 42.0 °F 33.0 °F 30.1 in Calm   1 mph 71% 0.000 in 0.00 W/m2
20:54 41.0 °F 33.0 °F 30.1 in WSW 1 mph 1 mph 72% 0.000 in 0.00 W/m2
20:59 41.0 °F 33.0 °F 30.1 in WSW 1 mph 1 mph 72% 0.000 in 0.00 W/m2
21:04 41.0 °F 33.0 °F 30.1 in WSW 1 mph 2 mph 72% 0.000 in 0.00 W/m2
21:09 41.0 °F 33.0 °F 30.1 in WSW 1 mph 1 mph 73% 0.000 in 0.00 W/m2
21:14 41.0 °F 33.0 °F 30.1 in WSW 1 mph 1 mph 73% 0.000 in 0.00 W/m2
21:19 41.0 °F 33.0 °F 30.1 in Calm     73% 0.000 in 0.00 W/m2
21:24 41.0 °F 33.0 °F 30.1 in WSW 1 mph 1 mph 73% 0.000 in 0.00 W/m2
21:29 40.0 °F 32.0 °F 30.1 in WSW 1 mph 1 mph 73% 0.000 in 0.00 W/m2
21:34 40.0 °F 33.0 °F 30.1 in WSW 2 mph 2 mph 74% 0.000 in 0.00 W/m2
21:39 40.0 °F 32.0 °F 30.1 in WSW 1 mph 2 mph 74% 0.000 in 0.00 W/m2
21:44 40.0 °F 33.0 °F 30.1 in WSW 1 mph 1 mph 75% 0.000 in 0.00 W/m2
21:49 40.0 °F 33.0 °F 30.1 in WSW 2 mph 2 mph 75% 0.000 in 0.00 W/m2
21:54 40.0 °F 33.0 °F 30.1 in Calm   2 mph 75% 0.000 in 0.00 W/m2
21:59 40.0 °F 32.0 °F 30.1 in Calm     75% 0.000 in 0.00 W/m2
22:04 39.0 °F 32.0 °F 30.1 in Calm     75% 0.000 in 0.00 W/m2
22:09 39.0 °F 32.0 °F 30.1 in Calm     75% 0.000 in 0.00 W/m2
22:14 39.0 °F 32.0 °F 30.1 in Calm     75% 0.000 in 0.00 W/m2
22:19 39.0 °F 32.0 °F 30.1 in WSW 1 mph 1 mph 76% 0.000 in 0.00 W/m2
22:24 39.0 °F 32.0 °F 30.1 in WSW 2 mph 2 mph 76% 0.000 in 0.00 W/m2
22:29 39.0 °F 32.0 °F 30.1 in Calm     76% 0.000 in 0.00 W/m2
22:34 39.0 °F 32.0 °F 30.1 in West 1 mph 2 mph 77% 0.000 in 0.00 W/m2
22:39 39.0 °F 32.0 °F 30.1 in Calm   2 mph 77% 0.000 in 0.00 W/m2
22:44 39.0 °F 32.0 °F 30.2 in West 2 mph 2 mph 77% 0.000 in 0.00 W/m2
22:49 38.0 °F 32.0 °F 30.2 in West 2 mph 2 mph 77% 0.000 in 0.00 W/m2
22:54 38.0 °F 32.0 °F 30.1 in West 2 mph 2 mph 78% 0.000 in 0.00 W/m2
22:59 38.0 °F 32.0 °F 30.1 in West 1 mph 2 mph 78% 0.000 in 0.00 W/m2
23:04 38.0 °F 32.0 °F 30.1 in West 1 mph 1 mph 78% 0.000 in 0.00 W/m2
23:09 38.0 °F 32.0 °F 30.1 in West 1 mph 1 mph 78% 0.000 in 0.00 W/m2
23:14 38.0 °F 32.0 °F 30.2 in Calm   1 mph 78% 0.000 in 0.00 W/m2
23:19 38.0 °F 32.0 °F 30.2 in West 1 mph 1 mph 79% 0.000 in 0.00 W/m2
23:24 38.0 °F 32.0 °F 30.2 in Calm   1 mph 79% 0.000 in 0.00 W/m2
23:29 38.0 °F 32.0 °F 30.2 in Calm     79% 0.000 in 0.00 W/m2
23:34 38.0 °F 32.0 °F 30.1 in Calm   1 mph 79% 0.000 in 0.00 W/m2
23:39 37.0 °F 31.0 °F 30.1 in Calm     79% 0.000 in 0.00 W/m2
23:44 37.0 °F 31.0 °F 30.1 in West 2 mph 2 mph 79% 0.000 in 0.00 W/m2
23:49 37.0 °F 31.0 °F 30.1 in West 2 mph 2 mph 79% 0.000 in 0.00 W/m2
23:54 37.0 °F 32.0 °F 30.1 in West 1 mph 2 mph 80% 0.000 in 0.00 W/m2
23:59 37.0 °F 31.0 °F 30.2 in West 1 mph 1 mph 80% 0.000 in 0.00 W/m2
Villages of Bridgestone, Spring, TX USA
Compliments of Weather Underground - 4 mb